Time;durP1;ratioP1;P1;durP2;ratioP2;P2;SDS_P1;SDS_P2;PMS_P1;PMS_P2;Temp;Humidity;BMP_temperature;BMP_pressure;BME280_temperature;BME280_humidity;BME280_pressure;Samples;Min_cycle;Max_cycle;Signal;HPM_P1;HPM_P2
2024/03/20 00:01:36;;;;;;;;;;;153.80;2201.60;;;;;;4994014;28;20083;-78
2024/03/20 00:04:04;;;;;;;33.90;14.68;;;153.80;2201.60;;;;;;4989629;28;19925;-76
2024/03/20 00:06:33;;;;;;;41.47;16.23;;;153.80;2201.60;;;;;;4993147;28;20089;-81
2024/03/20 00:09:02;;;;;;;37.05;16.35;;;153.80;2176.00;;;;;;4993066;28;20026;-75
2024/03/20 00:11:29;;;;;;;37.92;16.38;;;153.80;2201.60;;;;;;4990865;28;20038;-74
2024/03/20 00:13:54;;;;;;;43.08;18.15;;;153.80;2201.60;;;;;;4987985;28;20038;-73
2024/03/20 00:16:20;;;;;;;;;;;153.80;2201.60;;;;;;4992230;28;20391;-75
2024/03/20 00:18:46;;;;;;;36.05;16.48;;;153.80;2201.60;;;;;;4992730;28;19917;-75
2024/03/20 00:21:12;;;;;;;34.90;16.73;;;153.70;2201.60;;;;;;4985122;28;20633;-75
2024/03/20 00:23:38;;;;;;;;;;;153.70;2227.20;;;;;;4997704;28;20125;-76
2024/03/20 00:26:04;;;;;;;35.83;15.23;;;153.70;2227.20;;;;;;4989154;28;19945;-75
2024/03/20 00:28:30;;;;;;;;;;;153.60;2252.80;;;;;;4997302;28;20034;-75
2024/03/20 00:30:56;;;;;;;37.07;15.83;;;153.70;2252.80;;;;;;4996061;28;19916;-76
2024/03/20 00:33:22;;;;;;;34.80;16.40;;;153.60;2252.80;;;;;;4989711;28;20365;-76
2024/03/20 00:35:48;;;;;;;;;;;153.60;2252.80;;;;;;5011121;28;20026;-75
2024/03/20 00:38:13;;;;;;;36.92;16.40;;;153.70;2252.80;;;;;;4999433;28;19916;-75
2024/03/20 00:40:40;;;;;;;38.70;17.08;;;128.90;2252.80;;;;;;5017060;28;20018;-74
2024/03/20 00:43:06;;;;;;;;;;;128.80;2252.80;;;;;;5017537;28;20026;-75
2024/03/20 00:45:32;;;;;;;36.15;16.45;;;128.80;2252.80;;;;;;5017020;28;19995;-77
2024/03/20 00:47:58;;;;;;;38.25;19.20;;;128.70;2252.80;;;;;;5015101;28;20029;-75
2024/03/20 00:50:23;;;;;;;;;;;128.80;2252.80;;;;;;5017186;28;20072;-76
2024/03/20 00:52:49;;;;;;;33.65;15.32;;;128.80;2252.80;;;;;;5016833;28;20358;-78
2024/03/20 00:55:15;;;;;;;;;;;128.50;2252.80;;;;;;5017315;28;20052;-82
2024/03/20 00:57:41;;;;;;;26.75;14.32;;;128.40;2252.80;;;;;;5016835;28;19906;-74
2024/03/20 01:00:07;;;;;;;;;;;128.00;2252.80;;;;;;5017284;28;20029;-74
2024/03/20 01:02:32;;;;;;;29.67;15.20;;;103.20;2227.20;;;;;;5012545;28;20322;-79
2024/03/20 01:04:59;;;;;;;;;;;103.10;2227.20;;;;;;4980253;28;20124;-75
2024/03/20 01:07:26;;;;;;;34.38;15.38;;;103.00;2227.20;;;;;;4996816;28;20275;-79
2024/03/20 01:09:52;;;;;;;32.83;15.65;;;102.90;2227.20;;;;;;4979517;28;20392;-75
2024/03/20 01:12:18;;;;;;;32.25;16.42;;;102.90;2227.20;;;;;;4996840;28;20472;-74
2024/03/20 01:14:46;;;;;;;;;;;103.10;2227.20;;;;;;4997138;28;20026;-75
2024/03/20 01:17:15;;;;;;;37.35;16.42;;;103.00;2227.20;;;;;;4996887;28;19937;-75
2024/03/20 01:19:44;;;;;;;34.80;15.23;;;102.90;2227.20;;;;;;4996602;28;20026;-75
2024/03/20 01:22:11;;;;;;;34.42;16.48;;;102.90;2227.20;;;;;;4979110;28;20503;-75
2024/03/20 01:24:36;;;;;;;39.95;18.52;;;103.30;2227.20;;;;;;4996636;28;20486;-76
2024/03/20 01:27:02;;;;;;;;;;;128.10;2252.80;;;;;;4997194;28;20114;-75
2024/03/20 01:29:28;;;;;;;38.25;19.60;;;128.30;2252.80;;;;;;4996585;28;19906;-80
2024/03/20 01:31:53;;;;;;;;;;;128.20;2252.80;;;;;;4997104;28;20096;-76
2024/03/20 01:34:19;;;;;;;36.15;17.33;;;128.40;2252.80;;;;;;4995716;28;20000;-76
2024/03/20 01:36:45;;;;;;;;;;;128.20;2252.80;;;;;;4996893;28;20030;-81
2024/03/20 01:39:11;;;;;;;31.08;14.68;;;128.40;2252.80;;;;;;4996481;28;19906;-77
2024/03/20 01:41:37;;;;;;;32.08;15.77;;;128.40;2252.80;;;;;;4996455;28;20468;-75
2024/03/20 01:44:03;;;;;;;;;;;128.30;2252.80;;;;;;4996671;28;20030;-76
2024/03/20 01:46:33;;;;;;;36.03;18.60;;;128.30;2252.80;;;;;;4996549;28;19914;-79
2024/03/20 01:49:04;;;;;;;34.95;20.02;;;128.20;2252.80;;;;;;4996312;28;20050;-76
2024/03/20 01:51:31;;;;;;;36.92;17.92;;;128.30;2252.80;;;;;;4996259;28;20045;-75
2024/03/20 01:54:01;;;;;;;45.80;21.10;;;128.20;2252.80;;;;;;4996181;28;20023;-75
2024/03/20 01:56:28;;;;;;;33.33;17.35;;;128.20;2252.80;;;;;;4978788;28;20033;-75
2024/03/20 01:58:55;;;;;;;37.33;16.73;;;128.30;2252.80;;;;;;4996173;28;20022;-76
2024/03/20 02:01:21;;;;;;;35.13;16.35;;;128.30;2252.80;;;;;;4996087;28;20026;-74
2024/03/20 02:03:47;;;;;;;31.27;15.80;;;128.20;2252.80;;;;;;5009867;28;20051;-75
2024/03/20 02:06:28;;;;;;;30.27;15.45;;;128.20;2252.80;;;;;;4998199;28;20025;-77
2024/03/20 02:08:56;;;;;;;34.88;17.70;;;128.20;2252.80;;;;;;5015720;28;20053;-74
2024/03/20 02:11:24;;;;;;;31.90;15.50;;;128.30;2252.80;;;;;;4997609;28;20068;-77
2024/03/20 02:13:55;;;;;;;30.17;14.63;;;128.10;2252.80;;;;;;5015284;28;20037;-76
2024/03/20 02:16:22;;;;;;;37.13;15.93;;;128.00;2252.80;;;;;;5001617;28;20027;-76
2024/03/20 02:18:49;;;;;;;31.42;16.17;;;128.00;2252.80;;;;;;4978318;28;20448;-76
2024/03/20 02:21:17;;;;;;;34.92;17.25;;;128.00;2252.80;;;;;;4995481;28;20027;-75
2024/03/20 02:23:43;;;;;;;34.35;17.80;;;103.30;2227.20;;;;;;4995711;28;20043;-76
2024/03/20 02:26:09;;;;;;;;;;;103.30;2227.20;;;;;;4995806;28;20097;-76
2024/03/20 02:28:39;;;;;;;29.40;15.73;;;128.10;2252.80;;;;;;4995403;28;20375;-75
2024/03/20 02:31:08;;;;;;;33.47;16.00;;;103.10;2227.20;;;;;;4995388;28;20029;-75
2024/03/20 02:33:35;;;;;;;39.80;17.17;;;103.20;2227.20;;;;;;4987378;28;20125;-75
2024/03/20 02:36:02;;;;;;;39.45;18.35;;;103.20;2227.20;;;;;;4995233;28;20126;-78
2024/03/20 02:38:32;;;;;;;36.67;16.42;;;103.20;2227.20;;;;;;4995135;28;20022;-75
2024/03/20 02:40:57;;;;;;;33.65;16.10;;;103.20;2227.20;;;;;;4995305;28;20018;-74
2024/03/20 02:43:23;;;;;;;;;;;103.20;2227.20;;;;;;4995794;28;20430;-73
2024/03/20 02:45:49;;;;;;;36.30;17.63;;;103.10;2227.20;;;;;;4994901;28;20307;-77
2024/03/20 02:48:15;;;;;;;;;;;103.00;2227.20;;;;;;4995604;28;20053;-76
2024/03/20 02:50:41;;;;;;;36.08;15.68;;;102.90;2227.20;;;;;;4994997;28;20394;-75
2024/03/20 02:53:07;;;;;;;;;;;103.00;2227.20;;;;;;4995407;28;20050;-75
2024/03/20 02:55:36;;;;;;;26.05;13.05;;;103.10;2227.20;;;;;;4994884;28;19955;-75
2024/03/20 02:58:03;;;;;;;38.95;17.00;;;103.00;2227.20;;;;;;4994931;28;20109;-75
2024/03/20 03:00:30;;;;;;;31.35;17.63;;;103.00;2227.20;;;;;;4994602;28;20487;-73
2024/03/20 03:02:57;;;;;;;37.65;18.60;;;102.90;2227.20;;;;;;4993445;28;20496;-76
2024/03/20 03:05:25;;;;;;;38.08;17.73;;;102.90;2227.20;;;;;;4994736;28;20025;-74
2024/03/20 03:07:51;;;;;;;39.53;19.00;;;102.90;2227.20;;;;;;4994755;28;20022;-74
2024/03/20 03:10:19;;;;;;;43.53;19.83;;;102.80;2227.20;;;;;;5005941;28;20441;-82
2024/03/20 03:12:49;;;;;;;42.63;19.13;;;102.80;2227.20;;;;;;4992984;28;20077;-75
2024/03/20 03:15:15;;;;;;;43.92;20.40;;;102.90;2227.20;;;;;;4994257;28;20538;-75
2024/03/20 03:17:44;;;;;;;47.33;20.77;;;102.90;2227.20;;;;;;4994638;28;20152;-82
2024/03/20 03:20:14;;;;;;;43.25;19.83;;;102.90;2227.20;;;;;;4994316;28;20018;-75
2024/03/20 03:22:44;;;;;;;44.88;21.63;;;102.90;2227.20;;;;;;4994201;28;20034;-74
2024/03/20 03:25:11;;;;;;;45.55;19.90;;;102.80;2227.20;;;;;;4991240;28;20073;-75
2024/03/20 03:27:38;;;;;;;44.00;21.20;;;102.90;2227.20;;;;;;4994465;28;20427;-75
2024/03/20 03:30:06;;;;;;;49.72;21.77;;;102.80;2227.20;;;;;;4993970;28;20019;-75
2024/03/20 03:32:32;;;;;;;42.92;19.75;;;102.80;2227.20;;;;;;4994238;28;20031;-76
2024/03/20 03:34:57;;;;;;;;;;;102.90;2227.20;;;;;;4993411;28;20026;-75
2024/03/20 03:37:23;;;;;;;44.42;20.40;;;102.90;2227.20;;;;;;4994348;28;19909;-76
2024/03/20 03:39:50;;;;;;;;;;;102.80;2227.20;;;;;;4994509;28;20106;-75
2024/03/20 03:42:17;;;;;;;33.75;15.38;;;102.70;2227.20;;;;;;4994014;28;19905;-75
2024/03/20 03:44:43;;;;;;;47.97;20.17;;;102.60;2227.20;;;;;;4992757;28;20427;-78
2024/03/20 03:47:09;;;;;;;;;;;102.70;2227.20;;;;;;4994709;28;20026;-76
2024/03/20 03:49:35;;;;;;;45.17;18.50;;;102.70;2227.20;;;;;;4994376;28;19948;-75
2024/03/20 03:52:01;;;;;;;48.95;19.88;;;102.80;2227.20;;;;;;4994112;28;20038;-79
2024/03/20 03:54:27;;;;;;;;;;;102.70;2227.20;;;;;;4994196;28;20072;-74
2024/03/20 03:56:53;;;;;;;44.50;18.75;;;102.70;2227.20;;;;;;4993666;28;19913;-74
2024/03/20 03:59:18;;;;;;;;;;;102.70;2227.20;;;;;;4981345;28;20443;-75
2024/03/20 04:01:49;;;;;;;41.83;18.90;;;102.70;2227.20;;;;;;4994120;28;19906;-75
2024/03/20 04:04:15;;;;;;;39.25;18.17;;;102.60;2227.20;;;;;;4993817;28;20500;-75
2024/03/20 04:06:42;;;;;;;;;;;102.60;2227.20;;;;;;4994223;28;20053;-79
2024/03/20 04:09:10;;;;;;;33.72;15.73;;;102.60;2227.20;;;;;;4993937;28;20316;-75
2024/03/20 04:11:39;;;;;;;43.55;20.00;;;102.60;2227.20;;;;;;4993673;28;20041;-74
2024/03/20 04:14:05;;;;;;;44.25;22.35;;;102.60;2227.20;;;;;;4993791;28;20026;-75
2024/03/20 04:16:31;;;;;;;44.90;19.95;;;102.70;2227.20;;;;;;4993478;28;20038;-74
2024/03/20 04:18:57;;;;;;;;;;;102.60;2227.20;;;;;;4992677;28;20388;-75
2024/03/20 04:21:24;;;;;;;43.10;20.05;;;102.70;2227.20;;;;;;4993783;28;19968;-74
2024/03/20 04:23:50;;;;;;;48.67;20.85;;;102.60;2227.20;;;;;;4993512;28;20065;-73
2024/03/20 04:26:15;;;;;;;;;;;102.60;2227.20;;;;;;4993895;28;20014;-75
2024/03/20 04:28:41;;;;;;;42.95;19.23;;;102.60;2227.20;;;;;;4993753;28;19906;-75
2024/03/20 04:31:11;;;;;;;;;;;102.60;2227.20;;;;;;4994056;28;20550;-79
2024/03/20 04:33:37;;;;;;;45.30;21.33;;;102.50;2227.20;;;;;;4994119;28;19912;-76
2024/03/20 04:36:06;;;;;;;;;;;102.50;2227.20;;;;;;4994172;28;20030;-75
2024/03/20 04:38:33;;;;;;;47.35;21.73;;;102.40;2227.20;;;;;;4993762;28;20382;-75
2024/03/20 04:40:59;;;;;;;47.88;22.02;;;102.50;2227.20;;;;;;4993351;28;20249;-77
2024/03/20 04:43:24;;;;;;;;;;;102.50;2227.20;;;;;;4993794;28;20435;-74
2024/03/20 04:45:50;;;;;;;41.45;21.17;;;102.50;2227.20;;;;;;4993457;28;19913;-75
2024/03/20 04:48:16;;;;;;;;;;;102.50;2227.20;;;;;;4993994;28;20034;-79
2024/03/20 04:50:41;;;;;;;50.22;23.52;;;102.40;2227.20;;;;;;4993257;28;20036;-76
2024/03/20 04:53:07;;;;;;;;;;;102.50;2227.20;;;;;;4993892;28;20081;-77
2024/03/20 04:55:33;;;;;;;47.20;21.63;;;102.50;2227.20;;;;;;4993092;28;19920;-76
2024/03/20 04:57:59;;;;;;;;;;;102.40;2227.20;;;;;;4984984;28;20026;-75
2024/03/20 05:00:25;;;;;;;48.25;23.10;;;102.50;2227.20;;;;;;4993427;28;19916;-76
2024/03/20 05:02:51;;;;;;;48.35;19.92;;;102.50;2227.20;;;;;;4993434;28;20042;-74
2024/03/20 05:05:16;;;;;;;;;;;102.40;2227.20;;;;;;4993727;28;20018;-74
2024/03/20 05:07:42;;;;;;;43.60;19.17;;;102.40;2227.20;;;;;;4989286;28;19953;-76
2024/03/20 05:10:08;;;;;;;44.33;20.42;;;77.70;2227.20;;;;;;4991154;28;20101;-77
2024/03/20 05:12:34;;;;;;;;;;;77.70;2227.20;;;;;;4997249;28;20161;-79
2024/03/20 05:15:00;;;;;;;44.80;20.75;;;77.70;2227.20;;;;;;4995672;28;19917;-79
2024/03/20 05:17:27;;;;;;;48.10;22.25;;;102.40;2227.20;;;;;;4996874;28;20460;-79
2024/03/20 05:19:53;;;;;;;47.60;21.50;;;102.40;2227.20;;;;;;4996850;28;20371;-79
2024/03/20 05:22:18;;;;;;;;;;;102.50;2227.20;;;;;;4995438;28;20049;-74
2024/03/20 05:24:51;;;;;;;46.75;22.50;;;102.70;2227.20;;;;;;4996597;28;19906;-74
2024/03/20 05:27:18;;;;;;;53.70;23.33;;;102.50;2227.20;;;;;;4996660;28;20030;-76
2024/03/20 05:29:44;;;;;;;48.60;22.63;;;102.50;2227.20;;;;;;4978935;28;20022;-75
2024/03/20 05:32:11;;;;;;;51.63;23.25;;;102.60;2227.20;;;;;;4996703;28;20034;-77
2024/03/20 05:34:37;;;;;;;48.88;22.83;;;102.80;2227.20;;;;;;4994018;28;20042;-76
2024/03/20 05:37:03;;;;;;;;;;;102.70;2227.20;;;;;;4996265;28;20023;-75
2024/03/20 05:39:29;;;;;;;50.40;18.02;;;102.80;2227.20;;;;;;4994475;28;19956;-80
2024/03/20 05:41:55;;;;;;;;;;;102.70;2227.20;;;;;;4996173;28;20038;-74
2024/03/20 05:44:22;;;;;;;55.70;22.63;;;102.70;2227.20;;;;;;4995705;28;19910;-80
2024/03/20 05:46:50;;;;;;;59.38;26.05;;;102.70;2227.20;;;;;;4995698;28;20032;-78
2024/03/20 05:49:17;;;;;;;50.60;24.17;;;102.70;2227.20;;;;;;4995790;28;20015;-76
2024/03/20 05:51:43;;;;;;;52.63;24.50;;;102.80;2227.20;;;;;;4995711;28;20034;-80
2024/03/20 05:54:08;;;;;;;;;;;102.80;2227.20;;;;;;4996154;28;20019;-73
2024/03/20 05:56:34;;;;;;;43.50;21.05;;;103.00;2227.20;;;;;;4995667;28;19996;-74
2024/03/20 05:59:01;;;;;;;45.95;21.25;;;103.10;2227.20;;;;;;4994463;28;20097;-76
2024/03/20 06:01:28;;;;;;;53.28;23.10;;;103.20;2227.20;;;;;;4994057;28;20551;-72
2024/03/20 06:03:54;;;;;;;53.03;24.42;;;103.30;2227.20;;;;;;4995395;28;20156;-73
2024/03/20 06:06:19;;;;;;;;;;;103.30;2227.20;;;;;;4996139;28;20117;-75
2024/03/20 06:08:46;;;;;;;56.53;23.58;;;128.00;2252.80;;;;;;4995088;28;19989;-77
2024/03/20 06:11:12;;;;;;;52.58;24.95;;;128.30;2252.80;;;;;;4986557;28;20045;-77
2024/03/20 06:13:38;;;;;;;;;;;128.40;2252.80;;;;;;4995738;28;20023;-77
2024/03/20 06:16:04;;;;;;;57.90;25.05;;;128.50;2252.80;;;;;;4993626;28;19925;-81
2024/03/20 06:18:30;;;;;;;53.95;24.42;;;128.50;2252.80;;;;;;4995637;28;20482;-77
2024/03/20 06:20:56;;;;;;;61.30;25.55;;;128.60;2252.80;;;;;;4994842;28;20484;-77
2024/03/20 06:23:22;;;;;;;;;;;128.60;2252.80;;;;;;4995647;28;20029;-77
2024/03/20 06:25:48;;;;;;;53.55;23.73;;;128.70;2252.80;;;;;;4988054;28;20406;-76
2024/03/20 06:28:14;;;;;;;;;;;128.80;2252.80;;;;;;4995293;28;20035;-75
2024/03/20 06:30:39;;;;;;;48.60;22.33;;;153.60;2252.80;;;;;;4993206;28;19921;-76
2024/03/20 06:33:05;;;;;;;;;;;153.60;2252.80;;;;;;4992720;28;20042;-74
2024/03/20 06:35:32;;;;;;;52.55;22.27;;;153.90;2252.80;;;;;;4980707;28;20382;-80
2024/03/20 06:38:03;;;;;;;56.55;22.35;;;153.90;2252.80;;;;;;4990319;28;20023;-76
2024/03/20 06:40:32;;;;;;;56.42;24.13;;;153.90;2252.80;;;;;;4990413;28;20029;-77
2024/03/20 06:43:02;;;;;;;53.42;22.73;;;154.20;2252.80;;;;;;4994592;28;20027;-75
2024/03/20 06:45:33;;;;;;;47.03;20.23;;;154.40;2252.80;;;;;;4994637;28;20053;-82
2024/03/20 06:47:59;;;;;;;40.17;20.65;;;179.30;2252.80;;;;;;4993364;28;20401;-82
2024/03/20 06:50:27;;;;;;;;;;;179.50;2252.80;;;;;;4994993;28;20026;-73
2024/03/20 06:52:59;;;;;;;50.88;22.55;;;179.80;2252.80;;;;;;4994098;28;19910;-81
2024/03/20 06:55:26;;;;;;;46.97;21.83;;;180.10;2252.80;;;;;;4992338;28;20022;-74
2024/03/20 06:57:52;;;;;;;46.47;22.25;;;205.00;2252.80;;;;;;4993732;28;20029;-76
2024/03/20 07:00:19;;;;;;;46.10;22.35;;;205.30;2252.80;;;;;;4994609;28;20035;-78
2024/03/20 07:02:45;;;;;;;44.67;22.48;;;205.60;2176.00;;;;;;4994149;28;20149;-76
2024/03/20 07:05:15;;;;;;;55.75;28.40;;;230.40;2176.00;;;;;;4993493;28;20108;-75
2024/03/20 07:07:44;;;;;;;53.50;23.92;;;230.80;2073.60;;;;;;4993830;28;20019;-77
2024/03/20 07:10:10;;;;;;;43.22;23.17;;;231.00;2073.60;;;;;;4993831;28;20101;-75
2024/03/20 07:12:37;;;;;;;41.92;21.27;;;231.20;2022.40;;;;;;4993517;28;20053;-75
2024/03/20 07:15:10;;;;;;;41.35;20.00;;;256.20;1945.60;;;;;;4993657;28;20030;-74
2024/03/20 07:17:38;;;;;;;40.88;19.58;;;256.20;1894.40;;;;;;4987506;28;20030;-75
2024/03/20 07:20:09;;;;;;;35.03;18.10;;;256.40;1868.80;;;;;;4992807;28;20026;-79
2024/03/20 07:22:38;;;;;;;37.58;19.10;;;256.60;1868.80;;;;;;4979335;28;20034;-73
2024/03/20 07:25:08;;;;;;;30.73;18.15;;;256.80;1817.60;;;;;;4993317;28;20109;-79
2024/03/20 07:27:34;;;;;;;36.65;19.50;;;281.60;1843.20;;;;;;4999938;28;20455;-75
2024/03/20 07:30:01;;;;;;;42.42;19.73;;;281.70;1817.60;;;;;;4996960;28;20018;-76
2024/03/20 07:32:27;;;;;;;33.70;19.15;;;282.20;1766.40;;;;;;4993147;28;20042;-75
2024/03/20 07:34:53;;;;;;;38.75;18.52;;;282.50;1740.80;;;;;;4993899;28;20025;-74
2024/03/20 07:37:19;;;;;;;38.75;19.40;;;307.30;1715.20;;;;;;4993529;28;20030;-74
2024/03/20 07:39:45;;;;;;;41.97;20.00;;;307.50;1715.20;;;;;;4993435;28;20089;-80
2024/03/20 07:42:10;;;;;;;;;;;307.60;1689.60;;;;;;4993238;28;20058;-73
2024/03/20 07:44:36;;;;;;;33.63;16.65;;;307.60;1664.00;;;;;;4993059;28;20390;-74
2024/03/20 07:47:03;;;;;;;;;;;308.00;1664.00;;;;;;4993736;28;21944;-73
2024/03/20 07:49:29;;;;;;;30.48;16.60;;;308.00;1664.00;;;;;;4996258;28;20315;-75
2024/03/20 07:51:56;;;;;;;28.25;15.88;;;332.90;1638.40;;;;;;4993614;28;20047;-75
2024/03/20 07:54:25;;;;;;;32.83;17.98;;;333.30;1612.80;;;;;;4993378;28;20519;-75
2024/03/20 07:56:54;;;;;;;32.83;16.90;;;332.90;1612.80;;;;;;4992914;28;20038;-76
2024/03/20 07:59:25;;;;;;;34.95;18.02;;;333.30;1587.20;;;;;;4993577;28;20034;-75
2024/03/20 08:01:52;;;;;;;33.08;17.30;;;333.50;1587.20;;;;;;4993433;28;20034;-75
2024/03/20 08:04:18;;;;;;;26.08;14.43;;;333.60;1561.60;;;;;;4993769;28;20046;-75
2024/03/20 08:06:46;;;;;;;25.80;16.08;;;333.60;1536.00;;;;;;4993391;28;20389;-80
2024/03/20 08:09:13;;;;;;;34.90;17.42;;;358.50;1510.40;;;;;;4993257;28;20026;-83
2024/03/20 08:11:39;;;;;;;25.30;14.88;;;358.50;1536.00;;;;;;4989660;28;20041;-75
2024/03/20 08:14:09;;;;;;;27.98;13.88;;;333.70;1536.00;;;;;;4991955;28;20022;-76
2024/03/20 08:16:37;;;;;;;23.25;12.30;;;358.60;1536.00;;;;;;4976285;28;20424;-74
2024/03/20 08:19:06;;;;;;;16.15;9.55;;;358.70;1536.00;;;;;;4993090;28;20412;-73
2024/03/20 08:21:36;;;;;;;18.60;10.63;;;358.70;1510.40;;;;;;4991327;28;20030;-75
2024/03/20 08:24:04;;;;;;;19.42;12.57;;;358.80;1484.80;;;;;;4993214;28;20023;-75
2024/03/20 08:26:30;;;;;;;27.38;13.00;;;359.00;1433.60;;;;;;4993254;28;20031;-74
2024/03/20 08:28:56;;;;;;;23.05;13.77;;;359.00;1408.00;;;;;;4992874;28;20491;-74
2024/03/20 08:31:23;;;;;;;26.10;14.02;;;359.30;1408.00;;;;;;4991066;28;20042;-75
2024/03/20 08:33:49;;;;;;;18.08;12.27;;;384.20;1382.40;;;;;;4992782;28;20104;-79
2024/03/20 08:36:15;;;;;;;21.70;12.70;;;384.30;1408.00;;;;;;4992962;28;20065;-77
2024/03/20 08:38:42;;;;;;;20.88;12.38;;;384.50;1356.80;;;;;;4993387;28;20434;-75
2024/03/20 08:41:08;;;;;;;21.02;13.55;;;384.60;1356.80;;;;;;4993119;28;20022;-75
2024/03/20 08:43:34;;;;;;;24.92;12.77;;;384.50;1382.40;;;;;;4993416;28;20088;-75
2024/03/20 08:46:08;;;;;;;26.30;14.10;;;384.40;1356.80;;;;;;4996691;28;20033;-74
2024/03/20 08:48:38;;;;;;;19.55;11.80;;;384.60;1331.20;;;;;;4994213;28;20031;-75
2024/03/20 08:51:04;;;;;;;23.15;13.32;;;384.70;1305.60;;;;;;4996527;28;20042;-76
2024/03/20 08:53:32;;;;;;;20.38;12.65;;;384.70;1331.20;;;;;;4996539;28;20034;-74
2024/03/20 08:55:58;;;;;;;23.73;12.25;;;384.70;1305.60;;;;;;4996678;28;20026;-75
2024/03/20 08:58:25;;;;;;;23.38;12.77;;;384.90;1305.60;;;;;;4993230;28;20484;-77
2024/03/20 09:00:51;;;;;;;31.23;15.70;;;384.90;1280.00;;;;;;4996646;28;20089;-74
2024/03/20 09:03:17;;;;;;;21.27;12.63;;;409.60;1331.20;;;;;;4996142;28;20043;-74
2024/03/20 09:05:43;;;;;;;26.77;14.35;;;409.70;1331.20;;;;;;4994875;28;20373;-77
2024/03/20 09:08:09;;;;;;;19.02;12.27;;;409.60;1356.80;;;;;;4996213;28;20130;-77
2024/03/20 09:10:36;;;;;;;23.65;11.73;;;409.80;1331.20;;;;;;4995028;28;20116;-76
2024/03/20 09:13:02;;;;;;;21.83;12.10;;;409.70;1305.60;;;;;;4992405;28;20114;-74
2024/03/20 09:15:27;;;;;;;20.13;11.20;;;410.00;1305.60;;;;;;4987230;28;20105;-73
2024/03/20 09:17:53;;;;;;;20.58;11.30;;;410.00;1280.00;;;;;;4996648;28;20036;-81
2024/03/20 09:20:20;;;;;;;26.90;10.80;;;410.30;1305.60;;;;;;4996262;28;20077;-75
2024/03/20 09:22:46;;;;;;;21.73;13.05;;;410.20;1280.00;;;;;;4996240;28;20033;-75
2024/03/20 09:25:16;;;;;;;16.25;10.52;;;410.30;1254.40;;;;;;4996173;28;20384;-75
2024/03/20 09:27:42;;;;;;;18.20;11.80;;;410.20;1254.40;;;;;;4995736;28;20065;-74
2024/03/20 09:30:08;;;;;;;19.88;10.95;;;410.40;1280.00;;;;;;4996075;28;20030;-77
2024/03/20 09:32:35;;;;;;;19.10;11.90;;;435.20;1228.80;;;;;;4995985;28;20042;-72
2024/03/20 09:35:01;;;;;;;24.60;12.80;;;435.50;1228.80;;;;;;4996016;28;20104;-74
2024/03/20 09:37:27;;;;;;;19.25;9.73;;;435.70;1228.80;;;;;;4981557;28;20085;-75
2024/03/20 09:39:54;;;;;;;17.27;10.50;;;435.70;1203.20;;;;;;4993542;28;20022;-75
2024/03/20 09:42:23;;;;;;;16.48;10.50;;;435.90;1203.20;;;;;;4995566;28;20031;-76
2024/03/20 09:44:49;;;;;;;17.02;10.60;;;436.10;1203.20;;;;;;4995969;28;20034;-78
2024/03/20 09:47:16;;;;;;;20.98;12.93;;;436.10;1203.20;;;;;;4991326;28;20433;-75
2024/03/20 09:49:46;;;;;;;16.63;10.23;;;436.00;1203.20;;;;;;4995734;28;20022;-74
2024/03/20 09:52:13;;;;;;;13.73;9.10;;;436.00;1177.60;;;;;;4994915;28;20030;-74
2024/03/20 09:54:41;;;;;;;14.77;9.13;;;435.90;1203.20;;;;;;4995470;28;20019;-72
2024/03/20 09:57:13;;;;;;;19.00;10.30;;;460.80;1177.60;;;;;;4994607;28;20484;-77
2024/03/20 09:59:41;;;;;;;17.90;9.65;;;460.80;1203.20;;;;;;4987778;28;20050;-76
2024/03/20 10:02:08;;;;;;;17.95;10.30;;;461.10;1177.60;;;;;;4995920;28;20026;-74
2024/03/20 10:04:36;;;;;;;20.30;10.45;;;461.40;1203.20;;;;;;4995226;28;20042;-74
2024/03/20 10:07:12;;;;;;;16.77;9.80;;;461.40;1152.00;;;;;;4994838;28;20050;-73
2024/03/20 10:09:41;;;;;;;17.90;9.35;;;461.40;1152.00;;;;;;4987631;28;20069;-74
2024/03/20 10:12:08;;;;;;;14.05;8.98;;;461.30;1152.00;;;;;;4992671;28;20042;-75
2024/03/20 10:14:35;;;;;;;17.40;10.68;;;461.30;1152.00;;;;;;4990693;28;20054;-72
2024/03/20 10:17:13;;;;;;;12.77;8.95;;;461.40;1126.40;;;;;;4995234;28;20040;-73
2024/03/20 10:19:39;;;;;;;15.98;9.98;;;461.50;1126.40;;;;;;4985561;28;20128;-71
2024/03/20 10:22:05;;;;;;;17.08;8.68;;;461.60;1126.40;;;;;;4995574;28;21102;-73
2024/03/20 10:24:32;;;;;;;14.98;9.60;;;461.70;1100.80;;;;;;4994775;28;20026;-72
2024/03/20 10:26:58;;;;;;;13.52;9.35;;;486.40;1100.80;;;;;;4995001;28;20030;-73
2024/03/20 10:29:26;;;;;;;17.50;9.55;;;486.70;1126.40;;;;;;4994758;28;20096;-73
2024/03/20 10:31:56;;;;;;;15.32;9.88;;;486.50;1126.40;;;;;;4995349;28;20035;-71
2024/03/20 10:34:22;;;;;;;20.05;10.50;;;486.70;1100.80;;;;;;4994860;28;20405;-73
2024/03/20 10:36:53;;;;;;;18.98;9.45;;;486.80;1126.40;;;;;;4994878;28;20030;-72
2024/03/20 10:39:23;;;;;;;14.68;9.13;;;486.90;1126.40;;;;;;4989599;28;20019;-72
2024/03/20 10:41:50;;;;;;;16.67;9.65;;;486.80;1100.80;;;;;;4994785;28;20034;-72
2024/03/20 10:44:18;;;;;;;24.52;9.82;;;486.70;1100.80;;;;;;4990682;28;20027;-74
2024/03/20 10:46:51;;;;;;;13.48;9.10;;;486.80;1075.20;;;;;;4994637;28;20346;-72
2024/03/20 10:49:22;;;;;;;14.20;8.85;;;486.90;1100.80;;;;;;4993172;28;20030;-73
2024/03/20 10:51:49;;;;;;;11.48;8.20;;;487.10;1075.20;;;;;;4994150;28;20042;-72
2024/03/20 10:54:17;;;;;;;13.43;8.73;;;486.80;1075.20;;;;;;4994390;28;20034;-72
2024/03/20 10:56:47;;;;;;;19.20;10.27;;;487.00;1100.80;;;;;;4994516;28;20096;-72
2024/03/20 10:59:21;;;;;;;16.10;8.75;;;487.20;1075.20;;;;;;4993937;28;20030;-71
2024/03/20 11:02:05;;;;;;;15.77;9.80;;;512.00;1075.20;;;;;;4994183;28;20037;-73
2024/03/20 11:04:42;;;;;;;19.58;9.20;;;512.20;1100.80;;;;;;4992005;28;20121;-81
2024/03/20 11:07:35;;;;;;;13.95;8.20;;;487.30;1075.20;;;;;;4993039;28;20030;-75
2024/03/20 11:10:17;;;;;;;13.52;8.15;;;487.10;1100.80;;;;;;4987502;28;20110;-72
2024/03/20 11:12:43;;;;;;;18.40;8.73;;;487.10;1075.20;;;;;;4987645;28;20049;-73
2024/03/20 11:15:15;;;;;;;14.48;9.18;;;487.20;1075.20;;;;;;4994248;28;20057;-72
2024/03/20 11:17:43;;;;;;;19.75;8.73;;;512.30;1100.80;;;;;;4993979;28;20026;-73
2024/03/20 11:20:32;;;;;;;16.90;10.38;;;512.10;1049.60;;;;;;4994034;28;20022;-73
2024/03/20 11:22:58;;;;;;;14.02;9.35;;;487.30;1075.20;;;;;;4968256;28;20481;-73
2024/03/20 11:25:24;;;;;;;15.48;9.43;;;487.10;1075.20;;;;;;4992247;28;20026;-72
2024/03/20 11:27:52;;;;;;;17.70;8.13;;;512.00;1100.80;;;;;;4993665;28;20029;-71
2024/03/20 11:30:18;;;;;;;11.57;7.95;;;487.30;1075.20;;;;;;4993750;28;20034;-75
2024/03/20 11:32:53;;;;;;;14.45;9.13;;;512.00;1049.60;;;;;;4993751;28;20137;-84
2024/03/20 11:35:19;;;;;;;12.30;8.55;;;512.10;1049.60;;;;;;4973297;28;20030;-84
2024/03/20 11:37:47;;;;;;;24.35;9.77;;;512.20;1049.60;;;;;;4991487;28;20054;-78
2024/03/20 11:40:13;;;;;;;13.40;9.27;;;512.30;1049.60;;;;;;4993670;28;20088;-84
2024/03/20 11:42:40;;;;;;;15.68;9.27;;;512.40;1049.60;;;;;;4993388;28;20057;-73
2024/03/20 11:45:10;;;;;;;16.80;9.85;;;512.50;1049.60;;;;;;4990195;28;20058;-71
2024/03/20 11:47:37;;;;;;;12.20;8.35;;;512.00;1049.60;;;;;;4993819;28;20041;-73
2024/03/20 11:50:03;;;;;;;13.13;9.05;;;512.10;1049.60;;;;;;4993110;28;20025;-83
2024/03/20 11:52:29;;;;;;;12.50;7.95;;;512.30;1049.60;;;;;;4993492;28;20034;-75
2024/03/20 11:54:55;;;;;;;11.57;8.38;;;512.20;1049.60;;;;;;4993563;28;20422;-74
2024/03/20 11:57:23;;;;;;;12.70;7.95;;;512.30;1049.60;;;;;;4993671;28;20080;-76
2024/03/20 11:59:54;;;;;;;14.73;8.05;;;512.30;1024.00;;;;;;4975694;28;20027;-72
2024/03/20 12:02:22;;;;;;;12.63;8.07;;;512.10;1049.60;;;;;;4993393;28;20097;-78
2024/03/20 12:04:48;;;;;;;11.13;7.15;;;512.20;1049.60;;;;;;4988191;28;20038;-83
2024/03/20 12:07:28;;;;;;;12.27;7.10;;;487.10;1049.60;;;;;;4993474;28;20510;-73
2024/03/20 12:09:54;;;;;;;33.33;18.20;;;487.30;1075.20;;;;;;4986297;28;20026;-79
2024/03/20 12:12:22;;;;;;;142.75;83.18;;;512.00;1049.60;;;;;;4993264;28;20038;-84
2024/03/20 12:14:51;;;;;;;20.80;11.70;;;512.20;1049.60;;;;;;4989235;28;20023;-78
2024/03/20 12:17:19;;;;;;;16.10;8.40;;;512.60;1049.60;;;;;;4990733;28;20034;-73